Dunwoody, Georgia
Current Conditions -  °F | °C
As of 8:53 PM on Tuesday 21 Oct 2014 (Local Time) from KPDK Reporting Station
Clear Clear  
Wind Chill: 59°   Ceiling: Unl
Heat Index: 59°   Visibility: 10mi
Dew Point: 47°   Wind: 5mph
Humidity: 64%   Direction: 330°NNW
Pressure: 30"   Gusts: NA
Location:  33.95°N, 84.33°W
Report Text: KPDK 220053Z 33004KT 10SM CLR 15/08 A3000 RMK AO2 SLP158 T01500083
Loading
Personal Weather Stations






























Interactive Weather Map
Tropical Storm Tracking
New forecast layout! Learn more

10-Day Weather Forecast

Advertisements
Track Severe Weather on mobile